sensor_id;sensor_type;location;lat;lon;timestamp;temperature;humidity
16958;DHT22;8595;52.542;11.974;2023-03-31T00:00:15;10.50;99.90
16958;DHT22;8595;52.542;11.974;2023-03-31T00:02:43;10.40;99.90
16958;DHT22;8595;52.542;11.974;2023-03-31T00:05:11;10.50;99.90
16958;DHT22;8595;52.542;11.974;2023-03-31T00:07:42;10.40;99.90
16958;DHT22;8595;52.542;11.974;2023-03-31T00:10:10;10.40;99.90
16958;DHT22;8595;52.542;11.974;2023-03-31T00:12:38;10.40;99.90
16958;DHT22;8595;52.542;11.974;2023-03-31T00:15:06;10.40;99.90
16958;DHT22;8595;52.542;11.974;2023-03-31T00:17:32;10.40;99.90
16958;DHT22;8595;52.542;11.974;2023-03-31T00:19:59;10.50;99.90
16958;DHT22;8595;52.542;11.974;2023-03-31T00:22:29;10.60;99.90
16958;DHT22;8595;52.542;11.974;2023-03-31T00:24:55;10.60;99.90
16958;DHT22;8595;52.542;11.974;2023-03-31T00:27:22;10.70;99.90
16958;DHT22;8595;52.542;11.974;2023-03-31T00:29:51;10.70;99.90
16958;DHT22;8595;52.542;11.974;2023-03-31T00:32:18;10.70;99.90
16958;DHT22;8595;52.542;11.974;2023-03-31T00:34:44;10.70;99.90
16958;DHT22;8595;52.542;11.974;2023-03-31T00:37:11;10.70;99.90
16958;DHT22;8595;52.542;11.974;2023-03-31T00:39:40;10.70;99.90
16958;DHT22;8595;52.542;11.974;2023-03-31T00:42:09;10.70;99.90
16958;DHT22;8595;52.542;11.974;2023-03-31T00:47:47;10.70;99.90
16958;DHT22;8595;52.542;11.974;2023-03-31T00:50:18;10.60;99.90
16958;DHT22;8595;52.542;11.974;2023-03-31T00:52:47;10.50;99.90
16958;DHT22;8595;52.542;11.974;2023-03-31T00:55:20;10.50;99.90
16958;DHT22;8595;52.542;11.974;2023-03-31T00:57:50;10.40;99.90
16958;DHT22;8595;52.542;11.974;2023-03-31T01:00:20;10.40;99.90
16958;DHT22;8595;52.542;11.974;2023-03-31T01:02:53;10.40;99.90
16958;DHT22;8595;52.542;11.974;2023-03-31T01:05:23;10.40;99.90
16958;DHT22;8595;52.542;11.974;2023-03-31T01:07:51;10.40;99.90
16958;DHT22;8595;52.542;11.974;2023-03-31T01:10:20;10.50;99.90
16958;DHT22;8595;52.542;11.974;2023-03-31T01:12:49;10.60;99.90
16958;DHT22;8595;52.542;11.974;2023-03-31T01:15:17;10.60;99.90
16958;DHT22;8595;52.542;11.974;2023-03-31T01:17:46;10.60;99.90
16958;DHT22;8595;52.542;11.974;2023-03-31T01:20:26;10.60;99.90
16958;DHT22;8595;52.542;11.974;2023-03-31T01:23:17;10.70;99.90
16958;DHT22;8595;52.542;11.974;2023-03-31T01:26:06;10.70;99.90
16958;DHT22;8595;52.542;11.974;2023-03-31T01:28:40;10.70;99.90
16958;DHT22;8595;52.542;11.974;2023-03-31T01:31:35;10.60;99.90
16958;DHT22;8595;52.542;11.974;2023-03-31T01:34:27;10.70;99.90
16958;DHT22;8595;52.542;11.974;2023-03-31T01:37:37;10.70;99.90
16958;DHT22;8595;52.542;11.974;2023-03-31T01:40:25;10.80;99.90
16958;DHT22;8595;52.542;11.974;2023-03-31T01:43:01;10.80;99.90
16958;DHT22;8595;52.542;11.974;2023-03-31T01:45:38;10.90;99.90
16958;DHT22;8595;52.542;11.974;2023-03-31T01:48:11;10.90;99.90
16958;DHT22;8595;52.542;11.974;2023-03-31T01:50:44;10.90;99.90
16958;DHT22;8595;52.542;11.974;2023-03-31T01:53:17;11.00;99.90
16958;DHT22;8595;52.542;11.974;2023-03-31T01:55:52;11.00;99.90
16958;DHT22;8595;52.542;11.974;2023-03-31T01:58:25;11.00;99.90
16958;DHT22;8595;52.542;11.974;2023-03-31T02:00:58;11.00;99.90
16958;DHT22;8595;52.542;11.974;2023-03-31T02:03:28;11.00;99.90
16958;DHT22;8595;52.542;11.974;2023-03-31T02:05:59;10.90;99.90
16958;DHT22;8595;52.542;11.974;2023-03-31T02:08:31;10.90;99.90
16958;DHT22;8595;52.542;11.974;2023-03-31T02:11:00;10.90;99.90
16958;DHT22;8595;52.542;11.974;2023-03-31T02:13:28;11.00;99.90
16958;DHT22;8595;52.542;11.974;2023-03-31T02:15:58;10.80;99.90
16958;DHT22;8595;52.542;11.974;2023-03-31T02:18:29;10.90;99.90
16958;DHT22;8595;52.542;11.974;2023-03-31T02:20:58;10.80;99.90
16958;DHT22;8595;52.542;11.974;2023-03-31T02:23:28;10.80;99.90
16958;DHT22;8595;52.542;11.974;2023-03-31T02:26:01;10.70;99.90
16958;DHT22;8595;52.542;11.974;2023-03-31T02:28:30;10.70;99.90
16958;DHT22;8595;52.542;11.974;2023-03-31T02:31:07;10.70;99.90
16958;DHT22;8595;52.542;11.974;2023-03-31T02:33:36;10.70;99.90
16958;DHT22;8595;52.542;11.974;2023-03-31T02:36:03;10.70;99.90
16958;DHT22;8595;52.542;11.974;2023-03-31T02:38:34;10.70;99.90
16958;DHT22;8595;52.542;11.974;2023-03-31T02:41:04;10.60;99.90
16958;DHT22;8595;52.542;11.974;2023-03-31T02:43:32;10.60;99.90
16958;DHT22;8595;52.542;11.974;2023-03-31T02:45:58;10.70;99.90
16958;DHT22;8595;52.542;11.974;2023-03-31T02:48:27;10.60;99.90
16958;DHT22;8595;52.542;11.974;2023-03-31T02:51:09;10.60;99.90
16958;DHT22;8595;52.542;11.974;2023-03-31T02:53:46;10.60;99.90
16958;DHT22;8595;52.542;11.974;2023-03-31T02:56:29;10.60;99.90
16958;DHT22;8595;52.542;11.974;2023-03-31T02:59:14;10.60;99.90
16958;DHT22;8595;52.542;11.974;2023-03-31T03:01:56;10.50;99.90
16958;DHT22;8595;52.542;11.974;2023-03-31T03:04:48;10.50;99.90
16958;DHT22;8595;52.542;11.974;2023-03-31T03:07:24;10.40;99.90
16958;DHT22;8595;52.542;11.974;2023-03-31T03:09:59;10.30;99.90
16958;DHT22;8595;52.542;11.974;2023-03-31T03:12:32;10.20;99.90
16958;DHT22;8595;52.542;11.974;2023-03-31T03:15:04;10.10;99.90
16958;DHT22;8595;52.542;11.974;2023-03-31T03:17:34;10.10;99.90
16958;DHT22;8595;52.542;11.974;2023-03-31T03:20:03;10.00;99.90
16958;DHT22;8595;52.542;11.974;2023-03-31T03:22:33;10.00;99.90
16958;DHT22;8595;52.542;11.974;2023-03-31T03:25:00;9.90;99.90
16958;DHT22;8595;52.542;11.974;2023-03-31T03:27:28;10.00;99.90
16958;DHT22;8595;52.542;11.974;2023-03-31T03:29:55;10.00;99.90
16958;DHT22;8595;52.542;11.974;2023-03-31T03:32:22;9.90;99.90
16958;DHT22;8595;52.542;11.974;2023-03-31T03:34:49;9.90;99.90
16958;DHT22;8595;52.542;11.974;2023-03-31T03:37:16;9.90;99.90
16958;DHT22;8595;52.542;11.974;2023-03-31T03:39:42;9.90;99.90
16958;DHT22;8595;52.542;11.974;2023-03-31T03:42:09;9.80;99.90
16958;DHT22;8595;52.542;11.974;2023-03-31T03:44:37;9.80;99.90
16958;DHT22;8595;52.542;11.974;2023-03-31T03:47:04;9.80;99.90
16958;DHT22;8595;52.542;11.974;2023-03-31T03:49:31;9.70;99.90
16958;DHT22;8595;52.542;11.974;2023-03-31T03:51:57;9.70;99.90
16958;DHT22;8595;52.542;11.974;2023-03-31T03:54:25;9.60;99.90
16958;DHT22;8595;52.542;11.974;2023-03-31T03:56:52;9.60;99.90
16958;DHT22;8595;52.542;11.974;2023-03-31T03:59:18;9.50;99.90
16958;DHT22;8595;52.542;11.974;2023-03-31T04:01:46;9.60;99.90
16958;DHT22;8595;52.542;11.974;2023-03-31T04:04:13;9.50;99.90
16958;DHT22;8595;52.542;11.974;2023-03-31T04:06:40;9.50;99.90
16958;DHT22;8595;52.542;11.974;2023-03-31T04:09:07;9.50;99.90
16958;DHT22;8595;52.542;11.974;2023-03-31T04:11:34;9.50;99.90
16958;DHT22;8595;52.542;11.974;2023-03-31T04:14:01;9.40;99.90
16958;DHT22;8595;52.542;11.974;2023-03-31T04:16:28;9.40;99.90
16958;DHT22;8595;52.542;11.974;2023-03-31T04:18:57;9.30;99.90
16958;DHT22;8595;52.542;11.974;2023-03-31T04:21:28;9.30;99.90
16958;DHT22;8595;52.542;11.974;2023-03-31T04:24:00;9.30;99.90
16958;DHT22;8595;52.542;11.974;2023-03-31T04:26:30;9.30;99.90
16958;DHT22;8595;52.542;11.974;2023-03-31T04:29:03;9.30;99.90
16958;DHT22;8595;52.542;11.974;2023-03-31T04:31:30;9.30;99.90
16958;DHT22;8595;52.542;11.974;2023-03-31T04:33:58;9.30;99.90
16958;DHT22;8595;52.542;11.974;2023-03-31T04:36:27;9.30;99.90
16958;DHT22;8595;52.542;11.974;2023-03-31T04:38:56;9.30;99.90
16958;DHT22;8595;52.542;11.974;2023-03-31T04:41:23;9.30;99.90
16958;DHT22;8595;52.542;11.974;2023-03-31T04:43:52;9.30;99.90
16958;DHT22;8595;52.542;11.974;2023-03-31T04:46:18;9.30;99.90
16958;DHT22;8595;52.542;11.974;2023-03-31T04:48:46;9.30;99.90
16958;DHT22;8595;52.542;11.974;2023-03-31T04:51:14;9.30;99.90
16958;DHT22;8595;52.542;11.974;2023-03-31T04:53:41;9.30;99.90
16958;DHT22;8595;52.542;11.974;2023-03-31T04:56:08;9.30;99.90
16958;DHT22;8595;52.542;11.974;2023-03-31T04:58:35;9.30;99.90
16958;DHT22;8595;52.542;11.974;2023-03-31T05:01:02;9.40;99.90
16958;DHT22;8595;52.542;11.974;2023-03-31T05:03:30;9.40;99.90
16958;DHT22;8595;52.542;11.974;2023-03-31T05:05:57;9.40;99.90
16958;DHT22;8595;52.542;11.974;2023-03-31T05:08:25;9.40;99.90
16958;DHT22;8595;52.542;11.974;2023-03-31T05:10:52;9.40;99.90
16958;DHT22;8595;52.542;11.974;2023-03-31T05:13:19;9.40;99.90
16958;DHT22;8595;52.542;11.974;2023-03-31T05:15:45;9.40;99.90
16958;DHT22;8595;52.542;11.974;2023-03-31T05:18:15;9.30;99.90
16958;DHT22;8595;52.542;11.974;2023-03-31T05:20:41;9.30;99.90
16958;DHT22;8595;52.542;11.974;2023-03-31T05:23:08;9.30;99.90
16958;DHT22;8595;52.542;11.974;2023-03-31T05:25:36;9.30;99.90
16958;DHT22;8595;52.542;11.974;2023-03-31T05:28:03;9.30;99.90
16958;DHT22;8595;52.542;11.974;2023-03-31T05:30:30;9.40;99.90
16958;DHT22;8595;52.542;11.974;2023-03-31T05:32:57;9.40;99.90
16958;DHT22;8595;52.542;11.974;2023-03-31T05:35:24;9.30;99.90
16958;DHT22;8595;52.542;11.974;2023-03-31T05:37:51;9.30;99.90
16958;DHT22;8595;52.542;11.974;2023-03-31T05:40:17;9.40;99.90
16958;DHT22;8595;52.542;11.974;2023-03-31T05:42:46;9.50;99.90
16958;DHT22;8595;52.542;11.974;2023-03-31T05:45:13;9.50;99.90
16958;DHT22;8595;52.542;11.974;2023-03-31T05:47:40;9.50;99.90
16958;DHT22;8595;52.542;11.974;2023-03-31T05:50:08;9.50;99.90
16958;DHT22;8595;52.542;11.974;2023-03-31T05:52:35;9.50;99.90
16958;DHT22;8595;52.542;11.974;2023-03-31T05:55:02;9.50;99.90
16958;DHT22;8595;52.542;11.974;2023-03-31T05:57:29;9.50;99.90
16958;DHT22;8595;52.542;11.974;2023-03-31T05:59:57;9.40;99.90
16958;DHT22;8595;52.542;11.974;2023-03-31T06:02:24;9.40;99.90
16958;DHT22;8595;52.542;11.974;2023-03-31T06:04:50;9.40;99.90
16958;DHT22;8595;52.542;11.974;2023-03-31T06:07:17;9.30;99.90
16958;DHT22;8595;52.542;11.974;2023-03-31T06:09:44;9.30;99.90
16958;DHT22;8595;52.542;11.974;2023-03-31T06:12:11;9.30;99.90
16958;DHT22;8595;52.542;11.974;2023-03-31T06:14:38;9.40;99.90
16958;DHT22;8595;52.542;11.974;2023-03-31T06:17:06;9.40;99.90
16958;DHT22;8595;52.542;11.974;2023-03-31T06:19:33;9.40;99.90
16958;DHT22;8595;52.542;11.974;2023-03-31T06:22:00;9.50;99.90
16958;DHT22;8595;52.542;11.974;2023-03-31T06:24:27;9.70;99.90
16958;DHT22;8595;52.542;11.974;2023-03-31T06:26:53;9.80;99.90
16958;DHT22;8595;52.542;11.974;2023-03-31T06:29:20;9.80;99.90
16958;DHT22;8595;52.542;11.974;2023-03-31T06:31:47;9.90;99.90
16958;DHT22;8595;52.542;11.974;2023-03-31T06:34:15;10.00;99.90
16958;DHT22;8595;52.542;11.974;2023-03-31T06:36:41;10.00;99.90
16958;DHT22;8595;52.542;11.974;2023-03-31T06:39:08;10.10;99.90
16958;DHT22;8595;52.542;11.974;2023-03-31T06:41:37;10.20;99.90
16958;DHT22;8595;52.542;11.974;2023-03-31T06:44:04;10.10;99.90
16958;DHT22;8595;52.542;11.974;2023-03-31T06:46:30;10.20;99.90
16958;DHT22;8595;52.542;11.974;2023-03-31T06:48:57;10.40;99.90
16958;DHT22;8595;52.542;11.974;2023-03-31T06:51:25;10.50;99.90
16958;DHT22;8595;52.542;11.974;2023-03-31T06:53:52;10.60;99.90
16958;DHT22;8595;52.542;11.974;2023-03-31T06:56:19;10.80;99.90
16958;DHT22;8595;52.542;11.974;2023-03-31T06:58:46;10.90;99.90
16958;DHT22;8595;52.542;11.974;2023-03-31T07:01:13;11.00;99.90
16958;DHT22;8595;52.542;11.974;2023-03-31T07:03:40;11.10;99.90
16958;DHT22;8595;52.542;11.974;2023-03-31T07:06:06;11.30;99.90
16958;DHT22;8595;52.542;11.974;2023-03-31T07:08:36;11.40;99.90
16958;DHT22;8595;52.542;11.974;2023-03-31T07:11:02;11.60;99.90
16958;DHT22;8595;52.542;11.974;2023-03-31T07:13:29;11.80;99.90
16958;DHT22;8595;52.542;11.974;2023-03-31T07:15:56;12.00;99.90
16958;DHT22;8595;52.542;11.974;2023-03-31T07:18:24;12.20;99.90
16958;DHT22;8595;52.542;11.974;2023-03-31T07:20:56;12.20;99.90
16958;DHT22;8595;52.542;11.974;2023-03-31T07:23:23;12.30;99.90
16958;DHT22;8595;52.542;11.974;2023-03-31T07:25:51;12.30;99.90
16958;DHT22;8595;52.542;11.974;2023-03-31T07:28:17;12.40;99.90
16958;DHT22;8595;52.542;11.974;2023-03-31T07:30:45;12.50;99.90
16958;DHT22;8595;52.542;11.974;2023-03-31T07:33:11;12.60;99.90
16958;DHT22;8595;52.542;11.974;2023-03-31T07:35:39;12.60;99.90
16958;DHT22;8595;52.542;11.974;2023-03-31T07:38:07;12.80;99.90
16958;DHT22;8595;52.542;11.974;2023-03-31T07:40:34;12.80;99.90
16958;DHT22;8595;52.542;11.974;2023-03-31T07:43:02;12.90;99.90
16958;DHT22;8595;52.542;11.974;2023-03-31T07:45:30;13.00;99.90
16958;DHT22;8595;52.542;11.974;2023-03-31T07:47:56;13.00;99.90
16958;DHT22;8595;52.542;11.974;2023-03-31T07:50:24;13.10;99.90
16958;DHT22;8595;52.542;11.974;2023-03-31T07:52:51;13.30;99.90
16958;DHT22;8595;52.542;11.974;2023-03-31T07:55:18;13.40;99.90
16958;DHT22;8595;52.542;11.974;2023-03-31T07:57:45;13.50;99.90
16958;DHT22;8595;52.542;11.974;2023-03-31T08:00:15;13.40;99.90
16958;DHT22;8595;52.542;11.974;2023-03-31T08:02:42;13.80;99.90
16958;DHT22;8595;52.542;11.974;2023-03-31T08:05:10;14.00;99.90
16958;DHT22;8595;52.542;11.974;2023-03-31T08:07:40;14.00;99.90
16958;DHT22;8595;52.542;11.974;2023-03-31T08:10:10;14.10;99.90
16958;DHT22;8595;52.542;11.974;2023-03-31T08:12:37;13.80;99.90
16958;DHT22;8595;52.542;11.974;2023-03-31T08:15:04;13.80;99.90
16958;DHT22;8595;52.542;11.974;2023-03-31T08:17:32;13.90;99.90
16958;DHT22;8595;52.542;11.974;2023-03-31T08:19:59;14.00;99.90
16958;DHT22;8595;52.542;11.974;2023-03-31T08:22:26;14.20;99.90
16958;DHT22;8595;52.542;11.974;2023-03-31T08:24:52;14.50;99.90
16958;DHT22;8595;52.542;11.974;2023-03-31T08:27:20;14.50;99.90
16958;DHT22;8595;52.542;11.974;2023-03-31T08:29:47;14.50;99.90
16958;DHT22;8595;52.542;11.974;2023-03-31T08:32:14;14.20;99.90
16958;DHT22;8595;52.542;11.974;2023-03-31T08:34:42;14.30;99.90
16958;DHT22;8595;52.542;11.974;2023-03-31T08:37:10;14.30;99.90
16958;DHT22;8595;52.542;11.974;2023-03-31T08:39:37;14.20;99.90
16958;DHT22;8595;52.542;11.974;2023-03-31T08:42:09;14.20;99.90
16958;DHT22;8595;52.542;11.974;2023-03-31T08:44:41;14.20;99.90
16958;DHT22;8595;52.542;11.974;2023-03-31T08:47:13;14.00;99.90
16958;DHT22;8595;52.542;11.974;2023-03-31T08:49:45;13.90;99.90
16958;DHT22;8595;52.542;11.974;2023-03-31T08:52:17;13.90;99.90
16958;DHT22;8595;52.542;11.974;2023-03-31T08:54:46;13.90;99.90
16958;DHT22;8595;52.542;11.974;2023-03-31T08:57:17;13.80;99.90
16958;DHT22;8595;52.542;11.974;2023-03-31T08:59:47;13.70;99.90
16958;DHT22;8595;52.542;11.974;2023-03-31T09:02:21;13.50;99.90
16958;DHT22;8595;52.542;11.974;2023-03-31T09:05:11;13.40;99.90
16958;DHT22;8595;52.542;11.974;2023-03-31T09:07:51;13.40;99.90
16958;DHT22;8595;52.542;11.974;2023-03-31T09:10:33;13.30;99.90
16958;DHT22;8595;52.542;11.974;2023-03-31T09:13:09;13.20;99.90
16958;DHT22;8595;52.542;11.974;2023-03-31T09:15:43;13.30;99.90
16958;DHT22;8595;52.542;11.974;2023-03-31T09:18:16;13.30;99.90
16958;DHT22;8595;52.542;11.974;2023-03-31T09:20:47;13.30;99.90
16958;DHT22;8595;52.542;11.974;2023-03-31T09:23:22;13.40;99.90
16958;DHT22;8595;52.542;11.974;2023-03-31T09:25:50;13.50;99.90
16958;DHT22;8595;52.542;11.974;2023-03-31T09:28:19;13.70;99.90
16958;DHT22;8595;52.542;11.974;2023-03-31T09:30:47;13.70;99.90
16958;DHT22;8595;52.542;11.974;2023-03-31T09:33:17;13.80;99.90
16958;DHT22;8595;52.542;11.974;2023-03-31T09:35:45;14.00;99.90
16958;DHT22;8595;52.542;11.974;2023-03-31T09:38:13;14.10;99.90
16958;DHT22;8595;52.542;11.974;2023-03-31T09:40:42;14.20;99.90
16958;DHT22;8595;52.542;11.974;2023-03-31T09:43:16;14.20;99.90
16958;DHT22;8595;52.542;11.974;2023-03-31T09:45:46;14.10;99.90
16958;DHT22;8595;52.542;11.974;2023-03-31T09:48:15;14.30;99.90
16958;DHT22;8595;52.542;11.974;2023-03-31T09:50:48;14.40;99.90
16958;DHT22;8595;52.542;11.974;2023-03-31T09:53:19;14.40;99.90
16958;DHT22;8595;52.542;11.974;2023-03-31T09:55:51;14.40;99.90
16958;DHT22;8595;52.542;11.974;2023-03-31T09:58:21;14.40;99.90
16958;DHT22;8595;52.542;11.974;2023-03-31T10:00:57;14.20;99.90
16958;DHT22;8595;52.542;11.974;2023-03-31T10:03:25;14.10;99.90
16958;DHT22;8595;52.542;11.974;2023-03-31T10:05:55;13.90;99.90
16958;DHT22;8595;52.542;11.974;2023-03-31T10:08:26;13.70;99.90
16958;DHT22;8595;52.542;11.974;2023-03-31T10:10:55;13.70;99.90
16958;DHT22;8595;52.542;11.974;2023-03-31T10:13:24;13.40;99.90
16958;DHT22;8595;52.542;11.974;2023-03-31T10:15:52;13.10;99.90
16958;DHT22;8595;52.542;11.974;2023-03-31T10:18:20;13.10;99.90
16958;DHT22;8595;52.542;11.974;2023-03-31T10:20:58;13.00;99.90
16958;DHT22;8595;52.542;11.974;2023-03-31T10:23:28;12.90;99.90
16958;DHT22;8595;52.542;11.974;2023-03-31T10:25:55;12.70;99.90
16958;DHT22;8595;52.542;11.974;2023-03-31T10:28:22;12.60;99.90
16958;DHT22;8595;52.542;11.974;2023-03-31T10:30:51;12.70;99.90
16958;DHT22;8595;52.542;11.974;2023-03-31T10:33:21;12.70;99.90
16958;DHT22;8595;52.542;11.974;2023-03-31T10:35:54;12.70;99.90
16958;DHT22;8595;52.542;11.974;2023-03-31T10:38:25;12.80;99.90
16958;DHT22;8595;52.542;11.974;2023-03-31T10:40:55;12.80;99.90
16958;DHT22;8595;52.542;11.974;2023-03-31T10:43:25;12.80;99.90
16958;DHT22;8595;52.542;11.974;2023-03-31T10:45:54;12.80;99.90
16958;DHT22;8595;52.542;11.974;2023-03-31T10:48:24;12.90;99.90
16958;DHT22;8595;52.542;11.974;2023-03-31T10:50:52;12.80;99.90
16958;DHT22;8595;52.542;11.974;2023-03-31T10:53:19;12.90;99.90
16958;DHT22;8595;52.542;11.974;2023-03-31T10:55:58;12.90;99.90
16958;DHT22;8595;52.542;11.974;2023-03-31T10:58:42;13.00;99.90
16958;DHT22;8595;52.542;11.974;2023-03-31T11:01:22;13.00;99.90
16958;DHT22;8595;52.542;11.974;2023-03-31T11:04:21;13.00;99.90
16958;DHT22;8595;52.542;11.974;2023-03-31T11:06:55;13.00;99.90
16958;DHT22;8595;52.542;11.974;2023-03-31T11:09:36;13.00;99.90
16958;DHT22;8595;52.542;11.974;2023-03-31T11:12:14;13.10;99.90
16958;DHT22;8595;52.542;11.974;2023-03-31T11:14:52;13.10;99.90
16958;DHT22;8595;52.542;11.974;2023-03-31T11:17:30;13.30;99.90
16958;DHT22;8595;52.542;11.974;2023-03-31T11:20:08;13.40;99.90
16958;DHT22;8595;52.542;11.974;2023-03-31T11:22:43;13.40;99.90
16958;DHT22;8595;52.542;11.974;2023-03-31T11:25:33;13.40;99.90
16958;DHT22;8595;52.542;11.974;2023-03-31T11:28:19;13.30;99.90
16958;DHT22;8595;52.542;11.974;2023-03-31T11:30:51;13.30;99.90
16958;DHT22;8595;52.542;11.974;2023-03-31T11:33:42;13.10;99.90
16958;DHT22;8595;52.542;11.974;2023-03-31T11:36:22;13.00;99.90
16958;DHT22;8595;52.542;11.974;2023-03-31T11:39:03;12.80;99.90
16958;DHT22;8595;52.542;11.974;2023-03-31T11:41:36;12.70;99.90
16958;DHT22;8595;52.542;11.974;2023-03-31T11:44:09;12.80;99.90
16958;DHT22;8595;52.542;11.974;2023-03-31T11:46:39;12.80;99.90
16958;DHT22;8595;52.542;11.974;2023-03-31T11:49:14;12.70;99.90
16958;DHT22;8595;52.542;11.974;2023-03-31T11:51:47;12.60;99.90
16958;DHT22;8595;52.542;11.974;2023-03-31T11:54:18;12.70;99.90
16958;DHT22;8595;52.542;11.974;2023-03-31T11:56:46;12.70;99.90
16958;DHT22;8595;52.542;11.974;2023-03-31T11:59:16;12.70;99.90
16958;DHT22;8595;52.542;11.974;2023-03-31T12:01:47;12.10;99.90
16958;DHT22;8595;52.542;11.974;2023-03-31T12:04:22;11.60;99.90
16958;DHT22;8595;52.542;11.974;2023-03-31T12:06:52;11.40;99.90
16958;DHT22;8595;52.542;11.974;2023-03-31T12:09:29;11.30;99.90
16958;DHT22;8595;52.542;11.974;2023-03-31T12:12:03;11.30;99.90
16958;DHT22;8595;52.542;11.974;2023-03-31T12:14:36;11.40;99.90
16958;DHT22;8595;52.542;11.974;2023-03-31T12:17:09;11.50;99.90
16958;DHT22;8595;52.542;11.974;2023-03-31T12:19:44;11.50;99.90
16958;DHT22;8595;52.542;11.974;2023-03-31T12:22:15;11.50;99.90
16958;DHT22;8595;52.542;11.974;2023-03-31T12:24:43;11.50;99.90
16958;DHT22;8595;52.542;11.974;2023-03-31T12:27:14;11.50;99.90
16958;DHT22;8595;52.542;11.974;2023-03-31T12:29:47;11.50;99.90
16958;DHT22;8595;52.542;11.974;2023-03-31T12:32:18;11.50;99.90
16958;DHT22;8595;52.542;11.974;2023-03-31T12:34:50;11.30;99.90
16958;DHT22;8595;52.542;11.974;2023-03-31T12:37:45;11.30;99.90
16958;DHT22;8595;52.542;11.974;2023-03-31T12:40:21;11.30;99.90
16958;DHT22;8595;52.542;11.974;2023-03-31T12:43:10;11.30;99.90
16958;DHT22;8595;52.542;11.974;2023-03-31T12:45:46;11.30;99.90
16958;DHT22;8595;52.542;11.974;2023-03-31T12:48:37;11.30;99.90
16958;DHT22;8595;52.542;11.974;2023-03-31T12:51:15;11.20;99.90
16958;DHT22;8595;52.542;11.974;2023-03-31T12:53:58;11.10;99.90
16958;DHT22;8595;52.542;11.974;2023-03-31T12:56:34;11.00;99.90
16958;DHT22;8595;52.542;11.974;2023-03-31T12:59:30;11.00;99.90
16958;DHT22;8595;52.542;11.974;2023-03-31T13:02:25;10.90;99.90
16958;DHT22;8595;52.542;11.974;2023-03-31T13:04:52;10.80;99.90
16958;DHT22;8595;52.542;11.974;2023-03-31T13:07:40;10.80;99.90
16958;DHT22;8595;52.542;11.974;2023-03-31T13:10:25;10.70;99.90
16958;DHT22;8595;52.542;11.974;2023-03-31T13:13:02;10.70;99.90
16958;DHT22;8595;52.542;11.974;2023-03-31T13:15:31;10.70;99.90
16958;DHT22;8595;52.542;11.974;2023-03-31T13:18:01;10.60;99.90
16958;DHT22;8595;52.542;11.974;2023-03-31T13:20:35;10.60;99.90
16958;DHT22;8595;52.542;11.974;2023-03-31T13:23:05;10.60;99.90
16958;DHT22;8595;52.542;11.974;2023-03-31T13:25:48;10.60;99.90
16958;DHT22;8595;52.542;11.974;2023-03-31T13:28:32;10.70;99.90
16958;DHT22;8595;52.542;11.974;2023-03-31T13:31:01;10.60;99.90
16958;DHT22;8595;52.542;11.974;2023-03-31T13:33:34;10.60;99.90
16958;DHT22;8595;52.542;11.974;2023-03-31T13:36:37;10.70;99.90
16958;DHT22;8595;52.542;11.974;2023-03-31T13:42:23;10.70;99.90
16958;DHT22;8595;52.542;11.974;2023-03-31T13:45:33;10.70;99.90
16958;DHT22;8595;52.542;11.974;2023-03-31T13:48:17;10.70;99.90
16958;DHT22;8595;52.542;11.974;2023-03-31T13:51:09;10.60;99.90
16958;DHT22;8595;52.542;11.974;2023-03-31T13:54:06;10.60;99.90
16958;DHT22;8595;52.542;11.974;2023-03-31T13:56:47;10.70;99.90
16958;DHT22;8595;52.542;11.974;2023-03-31T14:05:35;10.90;99.90
16958;DHT22;8595;52.542;11.974;2023-03-31T14:08:08;11.00;99.90
16958;DHT22;8595;52.542;11.974;2023-03-31T14:10:38;11.10;99.90
16958;DHT22;8595;52.542;11.974;2023-03-31T14:13:11;11.10;99.90
16958;DHT22;8595;52.542;11.974;2023-03-31T14:15:41;11.20;99.90
16958;DHT22;8595;52.542;11.974;2023-03-31T14:18:14;11.20;99.90
16958;DHT22;8595;52.542;11.974;2023-03-31T14:20:47;11.20;99.90
16958;DHT22;8595;52.542;11.974;2023-03-31T14:23:39;11.20;99.90
16958;DHT22;8595;52.542;11.974;2023-03-31T14:26:14;11.10;99.90
16958;DHT22;8595;52.542;11.974;2023-03-31T14:29:04;11.20;99.90
16958;DHT22;8595;52.542;11.974;2023-03-31T14:31:38;11.10;99.90
16958;DHT22;8595;52.542;11.974;2023-03-31T14:34:21;11.10;99.90
16958;DHT22;8595;52.542;11.974;2023-03-31T14:36:57;11.10;99.90
16958;DHT22;8595;52.542;11.974;2023-03-31T14:39:29;11.10;99.90
16958;DHT22;8595;52.542;11.974;2023-03-31T14:41:59;11.20;99.90
16958;DHT22;8595;52.542;11.974;2023-03-31T14:44:28;11.20;99.90
16958;DHT22;8595;52.542;11.974;2023-03-31T14:46:56;11.20;99.90
16958;DHT22;8595;52.542;11.974;2023-03-31T14:49:25;11.20;99.90
16958;DHT22;8595;52.542;11.974;2023-03-31T14:51:59;11.10;99.90
16958;DHT22;8595;52.542;11.974;2023-03-31T14:54:33;11.10;99.90
16958;DHT22;8595;52.542;11.974;2023-03-31T14:57:03;11.20;99.90
16958;DHT22;8595;52.542;11.974;2023-03-31T14:59:32;11.30;99.90
16958;DHT22;8595;52.542;11.974;2023-03-31T15:02:01;11.30;99.90
16958;DHT22;8595;52.542;11.974;2023-03-31T15:04:30;11.30;99.90
16958;DHT22;8595;52.542;11.974;2023-03-31T15:07:01;11.30;99.90
16958;DHT22;8595;52.542;11.974;2023-03-31T15:09:32;11.30;99.90
16958;DHT22;8595;52.542;11.974;2023-03-31T15:12:03;11.30;99.90
16958;DHT22;8595;52.542;11.974;2023-03-31T15:14:32;11.40;99.90
16958;DHT22;8595;52.542;11.974;2023-03-31T15:17:00;11.50;99.90
16958;DHT22;8595;52.542;11.974;2023-03-31T15:19:29;11.50;99.90
16958;DHT22;8595;52.542;11.974;2023-03-31T15:21:58;11.60;99.90
16958;DHT22;8595;52.542;11.974;2023-03-31T15:24:26;11.60;99.90
16958;DHT22;8595;52.542;11.974;2023-03-31T15:26:58;11.60;99.90
16958;DHT22;8595;52.542;11.974;2023-03-31T15:29:33;11.50;99.90
16958;DHT22;8595;52.542;11.974;2023-03-31T15:32:02;11.60;99.90
16958;DHT22;8595;52.542;11.974;2023-03-31T15:34:32;11.60;99.90
16958;DHT22;8595;52.542;11.974;2023-03-31T15:37:01;11.60;99.90
16958;DHT22;8595;52.542;11.974;2023-03-31T15:39:31;11.60;99.90
16958;DHT22;8595;52.542;11.974;2023-03-31T15:42:00;11.60;99.90
16958;DHT22;8595;52.542;11.974;2023-03-31T15:44:34;11.70;99.90
16958;DHT22;8595;52.542;11.974;2023-03-31T15:47:05;11.70;99.90
16958;DHT22;8595;52.542;11.974;2023-03-31T15:49:33;11.70;99.90
16958;DHT22;8595;52.542;11.974;2023-03-31T15:52:00;11.80;99.90
16958;DHT22;8595;52.542;11.974;2023-03-31T15:54:34;11.80;99.90
16958;DHT22;8595;52.542;11.974;2023-03-31T15:57:04;11.80;99.90
16958;DHT22;8595;52.542;11.974;2023-03-31T15:59:42;11.80;99.90
16958;DHT22;8595;52.542;11.974;2023-03-31T16:02:12;11.80;99.90
16958;DHT22;8595;52.542;11.974;2023-03-31T16:04:40;11.80;99.90
16958;DHT22;8595;52.542;11.974;2023-03-31T16:07:12;11.80;99.90
16958;DHT22;8595;52.542;11.974;2023-03-31T16:09:42;11.80;99.90
16958;DHT22;8595;52.542;11.974;2023-03-31T16:12:16;11.80;99.90
16958;DHT22;8595;52.542;11.974;2023-03-31T16:14:47;11.80;99.90